Time;durP1;ratioP1;P1;durP2;ratioP2;P2;SDS_P1;SDS_P2;PMS_P1;PMS_P2;Temp;Humidity;BMP_temperature;BMP_pressure;BME280_temperature;BME280_humidity;BME280_pressure;Samples;Min_cycle;Max_cycle;Signal;HPM_P1;HPM_P2
2020/12/10 00:04:27;;;;;;;384.03;32.13;;;;;;;2.76;100.00;97507.48;3763306;78;44505;-21
2020/12/10 00:09:33;;;;;;;321.77;28.27;;;;;;;2.79;100.00;97503.73;3729191;77;43405;-21
2020/12/10 00:14:39;;;;;;;402.60;31.70;;;;;;;2.76;100.00;97498.17;3723203;78;43427;-21
2020/12/10 00:19:44;;;;;;;418.60;30.77;;;;;;;2.73;100.00;97496.27;3747923;79;44027;-21
2020/12/10 00:24:50;;;;;;;276.13;28.00;;;;;;;2.61;100.00;97498.20;3712397;77;44064;-21
2020/12/10 00:29:57;;;;;;;238.67;27.17;;;;;;;2.65;100.00;97486.80;3750487;79;44763;-21
2020/12/10 00:35:04;;;;;;;204.53;22.67;;;;;;;2.70;100.00;97484.59;3726451;79;42763;-21
2020/12/10 00:40:10;;;;;;;420.80;30.20;;;;;;;2.66;100.00;97490.65;3730241;77;43995;-21
2020/12/10 00:45:16;;;;;;;257.77;23.63;;;;;;;2.66;100.00;97491.98;3706518;79;44625;-21
2020/12/10 00:50:22;;;;;;;384.30;30.30;;;;;;;2.65;100.00;97478.33;3711058;78;44007;-21
2020/12/10 00:55:28;;;;;;;263.17;26.10;;;;;;;2.65;100.00;97480.16;3737389;77;43714;-22
2020/12/10 01:00:34;;;;;;;266.63;25.60;;;;;;;2.63;100.00;97486.95;3727801;79;43503;-22
2020/12/10 01:05:40;;;;;;;141.60;21.87;;;;;;;2.59;100.00;97476.22;3727620;77;44008;-21
2020/12/10 01:10:46;;;;;;;149.73;22.63;;;;;;;2.62;100.00;97475.95;3733474;77;43591;-21
2020/12/10 01:15:55;;;;;;;280.03;26.60;;;;;;;2.66;100.00;97475.20;3725638;78;43382;-21
2020/12/10 01:21:01;;;;;;;379.70;32.17;;;;;;;2.63;100.00;97464.34;3728503;77;43920;-22
2020/12/10 01:26:11;;;;;;;467.50;35.80;;;;;;;2.56;100.00;97476.48;3721670;78;43297;-22
2020/12/10 01:31:17;;;;;;;214.83;23.00;;;;;;;2.57;100.00;97470.19;3731205;78;42868;-22
2020/12/10 01:36:25;;;;;;;378.57;28.70;;;;;;;2.56;100.00;97465.84;3740409;77;43722;-22
2020/12/10 01:41:33;;;;;;;420.90;32.50;;;;;;;2.56;100.00;97468.50;3743538;78;43283;-22
2020/12/10 01:46:41;;;;;;;439.73;33.10;;;;;;;2.54;100.00;97469.98;3727565;78;43704;-22
2020/12/10 01:51:47;;;;;;;444.80;32.80;;;;;;;2.51;100.00;97461.44;3735000;77;43677;-21
2020/12/10 01:56:55;;;;;;;377.80;27.83;;;;;;;2.53;100.00;97462.15;3732303;78;44058;-21
2020/12/10 02:02:01;;;;;;;388.53;29.93;;;;;;;2.51;100.00;97465.42;3720216;78;43484;-21
2020/12/10 02:07:07;;;;;;;276.73;23.67;;;;;;;2.59;100.00;97449.13;3723467;77;43988;-22
2020/12/10 02:12:14;;;;;;;281.63;26.73;;;;;;;2.58;100.00;97438.64;3742412;78;42716;-22
2020/12/10 02:17:19;;;;;;;268.60;27.97;;;;;;;2.56;100.00;97437.92;3705978;78;44080;-22
2020/12/10 02:22:26;;;;;;;282.47;24.37;;;;;;;2.47;100.00;97435.58;3720795;77;43500;-25
2020/12/10 02:27:33;;;;;;;305.17;24.77;;;;;;;2.44;100.00;97434.04;3702187;79;44590;-25
2020/12/10 02:32:38;;;;;;;379.07;30.40;;;;;;;2.42;100.00;97427.19;3700872;79;44552;-25
2020/12/10 02:37:44;;;;;;;375.07;29.93;;;;;;;2.25;100.00;97418.85;3713807;77;44158;-25
2020/12/10 02:42:50;;;;;;;303.17;26.57;;;;;;;2.23;100.00;97429.27;3710200;79;43363;-25
2020/12/10 02:47:56;;;;;;;354.20;30.20;;;;;;;2.19;100.00;97422.53;3737909;79;43689;-25
2020/12/10 02:53:02;;;;;;;353.33;27.90;;;;;;;2.20;100.00;97410.93;3705607;77;44058;-25
2020/12/10 02:58:09;;;;;;;381.77;29.50;;;;;;;2.25;100.00;97402.91;3716288;79;44062;-25
2020/12/10 03:03:15;;;;;;;361.57;29.93;;;;;;;2.19;100.00;97404.79;3725687;79;44189;-25
2020/12/10 03:08:21;;;;;;;305.83;27.53;;;;;;;2.15;100.00;97393.59;3724202;77;44529;-24
2020/12/10 03:13:27;;;;;;;335.57;27.90;;;;;;;2.14;100.00;97395.89;3737541;79;43103;-25
2020/12/10 03:18:33;;;;;;;267.63;26.83;;;;;;;2.16;100.00;97389.11;3718021;78;44051;-25
2020/12/10 03:23:39;;;;;;;330.57;27.10;;;;;;;2.14;100.00;97377.77;3749090;77;44056;-25
2020/12/10 03:28:44;;;;;;;292.57;28.10;;;;;;;2.10;100.00;97382.51;3753603;77;44184;-25
2020/12/10 03:33:50;;;;;;;501.70;36.13;;;;;;;2.12;100.00;97370.41;3738140;78;43742;-25
2020/12/10 03:38:56;;;;;;;420.57;33.67;;;;;;;2.11;100.00;97369.58;3752255;77;43450;-24
2020/12/10 03:44:02;;;;;;;433.30;33.87;;;;;;;2.15;100.00;97362.18;3720156;78;43992;-25
2020/12/10 03:49:09;;;;;;;406.03;32.97;;;;;;;2.08;100.00;97361.88;3729144;78;43718;-25
2020/12/10 03:54:15;;;;;;;401.10;34.77;;;;;;;2.06;100.00;97358.50;3747660;77;44049;-25
2020/12/10 03:59:20;;;;;;;300.10;27.63;;;;;;;2.11;100.00;97361.61;3739105;78;43435;-25
2020/12/10 04:04:27;;;;;;;277.37;26.50;;;;;;;2.05;100.00;97363.96;3738947;78;44157;-25
2020/12/10 04:09:33;;;;;;;195.63;23.60;;;;;;;2.12;100.00;97354.00;3734821;77;43462;-25
2020/12/10 04:14:39;;;;;;;384.97;32.17;;;;;;;2.13;100.00;97353.03;3737331;77;44051;-25
2020/12/10 04:19:45;;;;;;;413.40;34.63;;;;;;;2.15;100.00;97351.08;3791011;77;43427;-25
2020/12/10 04:24:51;;;;;;;222.40;22.93;;;;;;;2.16;100.00;97363.86;3791214;78;44030;-25
2020/12/10 04:29:57;;;;;;;411.27;33.77;;;;;;;2.17;100.00;97356.75;3758401;78;43318;-25
2020/12/10 04:35:03;;;;;;;344.13;30.80;;;;;;;2.18;100.00;97356.60;3758832;78;42657;-25
2020/12/10 04:40:09;;;;;;;239.27;24.47;;;;;;;2.18;100.00;97358.41;3756016;78;44003;-25
2020/12/10 04:45:15;;;;;;;404.40;35.03;;;;;;;2.18;100.00;97348.63;3775134;78;43464;-25
2020/12/10 04:50:25;;;;;;;335.90;29.77;;;;;;;2.16;100.00;97357.22;3773077;78;43396;-25
2020/12/10 04:55:32;;;;;;;411.93;33.90;;;;;;;2.19;100.00;97354.77;3748928;78;43703;-25
2020/12/10 05:00:38;;;;;;;179.90;23.33;;;;;;;2.25;100.00;97352.42;3766591;78;43300;-25
2020/12/10 05:05:45;;;;;;;172.47;23.87;;;;;;;2.23;100.00;97353.06;3744773;78;43430;-25
2020/12/10 05:10:51;;;;;;;346.80;29.13;;;;;;;2.21;100.00;97360.80;3756666;78;43712;-26
2020/12/10 05:15:57;;;;;;;154.00;24.07;;;;;;;2.18;100.00;97361.06;3758316;77;44050;-25
2020/12/10 05:21:04;;;;;;;254.23;28.00;;;;;;;2.19;100.00;97367.59;3738380;78;43698;-25
2020/12/10 05:26:11;;;;;;;294.20;28.13;;;;;;;2.13;100.00;97364.13;3738519;78;44058;-25
2020/12/10 05:31:19;;;;;;;314.00;30.73;;;;;;;2.11;100.00;97362.94;3753470;77;43467;-25
2020/12/10 05:36:26;;;;;;;398.37;32.57;;;;;;;2.07;100.00;97368.16;3714335;78;42911;-25
2020/12/10 05:41:33;;;;;;;310.67;28.83;;;;;;;2.02;100.00;97363.75;3713790;78;44029;-25
2020/12/10 05:46:39;;;;;;;167.73;21.97;;;;;;;2.07;100.00;97365.50;3723862;77;42820;-26
2020/12/10 05:51:46;;;;;;;224.10;23.90;;;;;;;2.12;100.00;97364.63;3724075;78;44042;-25
2020/12/10 05:56:56;;;;;;;208.23;23.83;;;;;;;2.11;100.00;97368.25;3737841;78;43399;-26
2020/12/10 06:02:04;;;;;;;185.67;22.37;;;;;;;2.10;100.00;97371.88;3744341;77;44028;-25
2020/12/10 06:07:12;;;;;;;165.77;21.47;;;;;;;2.12;100.00;97377.91;3713878;78;43506;-25
2020/12/10 06:12:19;;;;;;;357.97;27.87;;;;;;;2.13;100.00;97379.59;3713816;78;44089;-26
2020/12/10 06:17:26;;;;;;;279.87;24.50;;;;;;;2.09;100.00;97372.85;3727572;77;45039;-26
2020/12/10 06:22:33;;;;;;;149.93;21.60;;;;;;;2.07;100.00;97364.17;3721096;78;44054;-26
2020/12/10 06:27:39;;;;;;;38.47;14.60;;;;;;;2.10;100.00;97373.21;3739385;78;43697;-28
2020/12/10 06:32:47;;;;;;;61.47;22.03;;;;;;;2.16;100.00;97379.80;3744713;77;43483;-28
2020/12/10 06:37:53;;;;;;;68.30;24.70;;;;;;;2.18;100.00;97375.20;3722257;78;43447;-28
2020/12/10 06:42:59;;;;;;;66.10;24.07;;;;;;;2.18;100.00;97377.00;3714914;78;43440;-28
2020/12/10 06:48:06;;;;;;;71.77;26.40;;;;;;;2.20;100.00;97375.06;3765109;77;43475;-27
2020/12/10 06:53:17;;;;;;;74.90;27.73;;;;;;;2.20;100.00;97379.91;3726171;78;44538;-25
2020/12/10 06:58:25;;;;;;;116.93;32.17;;;;;;;2.25;100.00;97376.84;3723826;78;44157;-27
2020/12/10 07:03:35;;;;;;;162.33;34.87;;;;;;;2.24;100.00;97383.95;3729488;77;44721;-27
2020/12/10 07:08:53;;;;;;;187.23;36.70;;;;;;;2.19;100.00;97389.31;3742971;78;43423;-27
2020/12/10 07:14:00;;;;;;;178.03;34.77;;;;;;;2.13;100.00;97384.91;3754198;78;44104;-27
2020/12/10 07:19:06;;;;;;;201.47;36.67;;;;;;;2.09;100.00;97383.98;3741336;77;44083;-27
2020/12/10 07:24:11;;;;;;;180.40;34.70;;;;;;;2.13;100.00;97387.56;3727250;78;44083;-27
2020/12/10 07:29:18;;;;;;;158.00;37.23;;;;;;;2.08;100.00;97385.78;3750044;78;44099;-27
2020/12/10 07:34:23;;;;;;;179.77;35.80;;;;;;;2.11;100.00;97389.51;3759895;77;43706;-26
2020/12/10 07:39:30;;;;;;;196.30;36.83;;;;;;;2.12;100.00;97391.19;3594561;81;44523;-27
2020/12/10 07:44:37;;;;;;;259.50;40.87;;;;;;;2.09;100.00;97394.11;3743525;79;43111;-27
2020/12/10 07:49:42;;;;;;;270.13;40.20;;;;;;;2.06;100.00;97393.04;3739300;77;44010;-27
2020/12/10 07:54:50;;;;;;;223.93;38.73;;;;;;;2.06;100.00;97392.22;3736095;78;44047;-27
2020/12/10 08:00:00;;;;;;;237.13;39.30;;;;;;;2.05;100.00;97392.72;3737126;77;43681;-27
2020/12/10 08:05:16;;;;;;;205.13;37.97;;;;;;;2.05;100.00;97390.05;3725075;78;26347;-27
2020/12/10 08:10:24;;;;;;;165.03;37.87;;;;;;;2.07;100.00;97396.05;3735751;78;44015;-26
2020/12/10 08:15:30;;;;;;;134.97;34.03;;;;;;;2.10;100.00;97389.16;3737034;77;43422;-27
2020/12/10 08:20:38;;;;;;;146.60;33.83;;;;;;;2.20;100.00;97394.98;3733889;77;43685;-26
2020/12/10 08:25:45;;;;;;;125.83;33.57;;;;;;;2.23;100.00;97392.07;3729009;78;43726;-27
2020/12/10 08:30:54;;;;;;;137.77;34.17;;;;;;;2.21;100.00;97392.69;3743125;77;43742;-26
2020/12/10 08:36:00;;;;;;;157.43;35.10;;;;;;;2.26;100.00;97388.65;3760663;78;43698;-26
2020/12/10 08:41:07;;;;;;;122.73;32.80;;;;;;;2.34;100.00;97390.64;3753200;78;43697;-26
2020/12/10 08:46:16;;;;;;;124.83;32.33;;;;;;;2.32;100.00;97392.59;3763037;77;43416;-26
2020/12/10 08:51:21;;;;;;;125.80;32.57;;;;;;;2.29;100.00;97399.02;3732598;78;44175;-26
2020/12/10 08:56:34;;;;;;;132.73;34.20;;;;;;;2.37;100.00;97403.67;3729728;78;44041;-26
2020/12/10 09:01:35;;;;;;;125.27;32.20;;;;;;;2.45;100.00;97401.67;3737634;77;44083;-26
2020/12/10 09:06:43;;;;;;;118.13;31.67;;;;;;;2.43;100.00;97396.47;3732723;78;43685;-26
2020/12/10 09:11:49;;;;;;;102.30;29.73;;;;;;;2.44;100.00;97395.50;3722678;78;43730;-26
2020/12/10 09:16:54;;;;;;;102.77;30.50;;;;;;;2.35;100.00;97390.17;3759079;77;43326;-26
2020/12/10 09:22:00;;;;;;;131.67;32.13;;;;;;;2.38;100.00;97392.06;3755972;77;44049;-26
2020/12/10 09:27:07;;;;;;;96.13;30.23;;;;;;;2.38;100.00;97380.58;3769316;78;43674;-26
2020/12/10 09:32:13;;;;;;;113.00;30.63;;;;;;;2.33;100.00;97369.52;3747406;77;44087;-26
2020/12/10 09:37:19;;;;;;;108.57;29.33;;;;;;;2.37;100.00;97382.88;3742198;78;43467;-26
2020/12/10 09:42:25;;;;;;;93.90;28.37;;;;;;;2.40;100.00;97383.94;3721724;78;44074;-26
2020/12/10 09:47:31;;;;;;;106.30;29.23;;;;;;;2.41;100.00;97374.49;3726783;77;44037;-25
2020/12/10 09:52:41;;;;;;;89.60;28.30;;;;;;;2.52;100.00;97366.08;3733105;78;44138;-26
2020/12/10 09:57:44;;;;;;;91.40;29.03;;;;;;;2.52;100.00;97361.59;3723757;78;43726;-26
2020/12/10 10:02:50;;;;;;;100.33;30.13;;;;;;;2.65;100.00;97361.32;3738119;77;43422;-26
2020/12/10 10:07:56;;;;;;;100.70;32.57;;;;;;;2.78;100.00;97362.41;3735266;78;44053;-26
2020/12/10 10:13:01;;;;;;;93.70;29.30;;;;;;;2.80;100.00;97360.93;3745048;78;43415;-25
2020/12/10 10:18:07;;;;;;;85.57;29.70;;;;;;;2.86;100.00;97353.73;3759940;77;43479;-25
2020/12/10 10:23:13;;;;;;;88.87;26.80;;;;;;;2.92;100.00;97352.70;3716248;79;44007;-26
2020/12/10 10:28:19;;;;;;;90.07;28.03;;;;;;;2.93;100.00;97356.19;3728724;79;44049;-25
2020/12/10 10:33:25;;;;;;;135.00;32.50;;;;;;;2.91;100.00;97355.47;3734912;77;42811;-26
2020/12/10 10:38:33;;;;;;;123.13;32.73;;;;;;;2.87;100.00;97350.10;3707090;79;43900;-26
2020/12/10 10:43:39;;;;;;;135.40;33.33;;;;;;;2.76;100.00;97349.23;3703690;79;43769;-26
2020/12/10 10:48:44;;;;;;;130.57;31.63;;;;;;;2.81;100.00;97350.64;3718492;77;43432;-26
2020/12/10 10:53:50;;;;;;;120.77;29.70;;;;;;;2.67;100.00;97341.26;3714568;79;44073;-25
2020/12/10 10:58:57;;;;;;;114.33;29.87;;;;;;;2.66;100.00;97344.39;3721436;79;43231;-26
2020/12/10 11:04:03;;;;;;;225.83;32.90;;;;;;;2.60;100.00;97321.03;3726761;79;43328;-26
2020/12/10 11:09:08;;;;;;;173.63;30.90;;;;;;;2.46;100.00;97325.77;3732603;79;42883;-26
2020/12/10 11:14:14;;;;;;;113.13;28.67;;;;;;;2.51;100.00;97317.87;3723734;79;44099;-26
2020/12/10 11:19:20;;;;;;;135.20;29.13;;;;;;;2.58;100.00;97305.22;3742772;77;44090;-25
2020/12/10 11:24:26;;;;;;;143.07;29.37;;;;;;;2.45;100.00;97297.49;3732869;78;43285;-25
2020/12/10 11:29:32;;;;;;;117.20;28.80;;;;;;;2.54;100.00;97301.63;3732877;77;43134;-26
2020/12/10 11:34:37;;;;;;;115.77;30.57;;;;;;;2.46;100.00;97307.16;3742525;77;44046;-26
2020/12/10 11:39:44;;;;;;;122.73;28.57;;;;;;;2.51;100.00;97298.76;3746530;78;43333;-26
2020/12/10 11:44:50;;;;;;;108.80;29.80;;;;;;;2.50;100.00;97291.76;3755106;78;43496;-25
2020/12/10 11:49:56;;;;;;;98.33;28.53;;;;;;;2.45;100.00;97288.19;3753619;77;43385;-26
2020/12/10 11:55:02;;;;;;;107.33;27.70;;;;;;;2.58;100.00;97288.41;3728630;78;43448;-25
2020/12/10 12:00:09;;;;;;;91.67;26.43;;;;;;;2.59;100.00;97294.09;3732123;77;44993;-25
2020/12/10 12:05:18;;;;;;;105.50;29.13;;;;;;;2.54;100.00;97294.98;3731146;78;43376;-26
2020/12/10 12:10:24;;;;;;;113.77;28.13;;;;;;;2.52;100.00;97297.78;3732924;78;43439;-25
2020/12/10 12:15:30;;;;;;;102.67;27.23;;;;;;;2.55;100.00;97299.31;3750246;77;44152;-25
2020/12/10 12:20:35;;;;;;;100.83;28.07;;;;;;;2.50;100.00;97292.27;3746770;77;44083;-26
2020/12/10 12:25:42;;;;;;;88.87;25.07;;;;;;;2.49;100.00;97299.88;3657851;80;43686;-26
2020/12/10 12:30:48;;;;;;;83.53;24.43;;;;;;;2.46;100.00;97298.35;3722014;77;43315;-26
2020/12/10 12:35:54;;;;;;;86.10;26.10;;;;;;;2.46;100.00;97297.84;3723636;79;44034;-26
2020/12/10 12:41:00;;;;;;;84.43;24.97;;;;;;;2.40;100.00;97290.44;3665457;80;44022;-26
2020/12/10 12:46:08;;;;;;;76.63;24.73;;;;;;;2.44;100.00;97287.01;3726084;77;42808;-25
2020/12/10 12:51:15;;;;;;;83.53;25.10;;;;;;;2.48;100.00;97287.56;3714357;78;43973;-25
2020/12/10 12:56:22;;;;;;;72.73;24.33;;;;;;;2.44;100.00;97282.52;3736608;78;43455;-26
2020/12/10 13:01:28;;;;;;;75.37;24.90;;;;;;;2.44;100.00;97287.84;3743234;77;43709;-26
2020/12/10 13:06:35;;;;;;;74.67;24.97;;;;;;;2.49;100.00;97295.39;3739714;78;44084;-26
2020/12/10 13:11:41;;;;;;;67.47;22.43;;;;;;;2.42;100.00;97296.43;3745704;78;44576;-25
2020/12/10 13:16:47;;;;;;;82.00;25.60;;;;;;;2.45;100.00;97304.14;3743030;77;44097;-25
2020/12/10 13:21:53;;;;;;;73.07;23.50;;;;;;;2.42;100.00;97298.27;3723229;78;43516;-25
2020/12/10 13:26:59;;;;;;;74.60;23.47;;;;;;;2.42;100.00;97293.77;3726674;79;43007;-25
2020/12/10 13:32:05;;;;;;;70.03;24.30;;;;;;;2.44;100.00;97297.64;3704652;77;43542;-25
2020/12/10 13:37:11;;;;;;;78.03;24.27;;;;;;;2.41;100.00;97296.58;3727414;79;43906;-25
2020/12/10 13:42:17;;;;;;;69.03;23.87;;;;;;;2.44;100.00;97307.77;3739070;79;43361;-25
2020/12/10 13:47:24;;;;;;;59.13;22.37;;;;;;;2.38;100.00;97309.67;3722821;77;44060;-26
2020/12/10 13:52:31;;;;;;;63.77;23.40;;;;;;;2.41;100.00;97309.37;3722600;79;43718;-25
2020/12/10 13:57:36;;;;;;;59.17;21.90;;;;;;;2.46;100.00;97306.33;3714200;79;44019;-26
2020/12/10 14:02:44;;;;;;;58.47;20.87;;;;;;;2.39;100.00;97303.37;3729544;77;44090;-25
2020/12/10 14:07:51;;;;;;;54.73;20.03;;;;;;;2.35;100.00;97304.62;3738308;77;43403;-26
2020/12/10 14:12:57;;;;;;;53.23;22.13;;;;;;;2.38;100.00;97314.98;3723839;78;44018;-25
2020/12/10 14:18:04;;;;;;;51.30;20.60;;;;;;;2.39;100.00;97311.82;3747653;77;43997;-25
2020/12/10 14:23:09;;;;;;;53.20;20.13;;;;;;;2.44;100.00;97314.42;3751799;77;44008;-25
2020/12/10 14:28:15;;;;;;;52.80;19.73;;;;;;;2.37;100.00;97322.60;3765457;78;43971;-25
2020/12/10 14:33:21;;;;;;;51.60;20.67;;;;;;;2.40;100.00;97322.80;3737766;77;44167;-26
2020/12/10 14:38:27;;;;;;;55.90;20.60;;;;;;;2.36;100.00;97325.37;3738737;78;43511;-26
2020/12/10 14:43:34;;;;;;;58.40;21.53;;;;;;;2.31;100.00;97322.66;3759949;78;44056;-26
2020/12/10 14:48:40;;;;;;;61.37;22.13;;;;;;;2.36;100.00;97330.69;3753080;77;44063;-26
2020/12/10 14:53:46;;;;;;;61.33;22.27;;;;;;;2.33;100.00;97319.86;3744011;78;43385;-25
2020/12/10 14:58:52;;;;;;;67.00;22.60;;;;;;;2.31;100.00;97327.97;3741929;78;44028;-26
2020/12/10 15:03:59;;;;;;;65.63;22.53;;;;;;;2.26;100.00;97333.34;3737538;78;44030;-25
2020/12/10 15:09:06;;;;;;;69.20;23.23;;;;;;;2.17;100.00;97331.01;3727357;78;43712;-26
2020/12/10 15:14:12;;;;;;;74.47;25.73;;;;;;;2.09;100.00;97333.50;3726043;78;44054;-26
2020/12/10 15:19:19;;;;;;;76.53;25.43;;;;;;;2.09;100.00;97329.02;3734214;78;43468;-26
2020/12/10 15:24:26;;;;;;;73.90;24.73;;;;;;;2.02;100.00;97342.50;3732334;78;43710;-25
2020/12/10 15:29:32;;;;;;;83.73;25.43;;;;;;;2.02;100.00;97333.67;3734584;78;43650;-25
2020/12/10 15:34:38;;;;;;;81.23;24.60;;;;;;;2.03;100.00;97333.56;3744444;77;42938;-26
2020/12/10 15:39:45;;;;;;;88.83;26.33;;;;;;;1.94;100.00;97335.70;3731992;78;44621;-26
2020/12/10 15:44:51;;;;;;;85.43;26.37;;;;;;;1.98;100.00;97338.41;3737179;78;44058;-26
2020/12/10 15:49:56;;;;;;;100.33;26.67;;;;;;;1.98;100.00;97339.27;3743228;78;43447;-26
2020/12/10 15:55:03;;;;;;;89.60;27.20;;;;;;;1.94;100.00;97335.20;3725249;78;42816;-26
2020/12/10 16:00:09;;;;;;;85.97;25.60;;;;;;;1.96;100.00;97334.58;3722977;77;43397;-26
2020/12/10 16:05:18;;;;;;;87.27;25.60;;;;;;;1.90;100.00;97325.80;3758928;77;43301;-26
2020/12/10 16:10:24;;;;;;;85.90;24.97;;;;;;;1.88;100.00;97328.25;3756700;78;43681;-26
2020/12/10 16:15:30;;;;;;;85.77;24.77;;;;;;;1.88;100.00;97326.92;3741419;77;44105;-25
2020/12/10 16:20:36;;;;;;;76.77;24.37;;;;;;;1.85;100.00;97326.70;3726396;78;44152;-26
2020/12/10 16:25:42;;;;;;;75.67;23.87;;;;;;;1.83;100.00;97330.80;3730671;78;44089;-26
2020/12/10 16:30:49;;;;;;;75.53;23.77;;;;;;;1.80;100.00;97339.53;3735419;77;44061;-25
2020/12/10 16:35:56;;;;;;;80.13;24.20;;;;;;;1.81;100.00;97338.09;3724445;77;44421;-26
2020/12/10 16:41:03;;;;;;;77.53;24.20;;;;;;;1.79;100.00;97339.17;3728448;79;44041;-26
2020/12/10 16:46:11;;;;;;;82.40;25.23;;;;;;;1.77;100.00;97335.33;3738397;77;44891;-26
2020/12/10 16:51:16;;;;;;;79.07;24.20;;;;;;;1.78;100.00;97340.14;3728284;79;43999;-26
2020/12/10 16:56:23;;;;;;;85.27;25.27;;;;;;;1.69;100.00;97333.84;3720677;77;44318;-26
2020/12/10 17:01:31;;;;;;;101.03;25.20;;;;;;;1.72;100.00;97334.88;3711277;79;43346;-26
2020/12/10 17:06:38;;;;;;;89.27;25.80;;;;;;;1.73;100.00;97340.54;3737050;79;44002;-26
2020/12/10 17:11:44;;;;;;;84.83;24.87;;;;;;;1.70;100.00;97334.19;3736362;77;43998;-25
2020/12/10 17:16:50;;;;;;;86.20;26.03;;;;;;;1.74;100.00;97338.24;3713890;79;44055;-26
2020/12/10 17:21:58;;;;;;;93.30;25.30;;;;;;;1.77;100.00;97341.97;3714036;78;44448;-26
2020/12/10 17:27:04;;;;;;;90.87;25.77;;;;;;;1.75;100.00;97347.89;3750994;77;44402;-26
2020/12/10 17:32:10;;;;;;;89.07;25.23;;;;;;;1.77;100.00;97341.97;3760984;78;44067;-26
2020/12/10 17:37:17;;;;;;;96.17;26.57;;;;;;;1.75;100.00;97338.60;3739456;78;43718;-25
2020/12/10 17:42:23;;;;;;;90.53;27.23;;;;;;;1.76;100.00;97340.28;3770793;77;43323;-25
2020/12/10 17:47:29;;;;;;;98.30;27.37;;;;;;;1.75;100.00;97341.76;3729137;78;44556;-25
2020/12/10 17:52:35;;;;;;;96.67;27.77;;;;;;;1.72;100.00;97341.52;3725684;78;44420;-26
2020/12/10 17:57:41;;;;;;;95.13;26.17;;;;;;;1.73;100.00;97341.87;3759741;77;44577;-25
2020/12/10 18:02:47;;;;;;;99.00;27.57;;;;;;;1.71;100.00;97341.16;3754879;78;44573;-25
2020/12/10 18:07:53;;;;;;;102.87;28.77;;;;;;;1.72;100.00;97352.14;3732018;78;44023;-25
2020/12/10 18:12:59;;;;;;;93.83;28.77;;;;;;;1.76;100.00;97354.89;3752772;77;43466;-25
2020/12/10 18:18:06;;;;;;;105.83;28.27;;;;;;;1.75;100.00;97346.56;3746012;77;43475;-26
2020/12/10 18:23:12;;;;;;;101.57;29.23;;;;;;;1.73;100.00;97341.87;3737605;78;44022;-26
2020/12/10 18:28:19;;;;;;;95.53;27.13;;;;;;;1.68;100.00;97349.41;3718252;77;43686;-26
2020/12/10 18:33:26;;;;;;;101.17;27.93;;;;;;;1.69;100.00;97347.11;3731393;79;43718;-26
2020/12/10 18:38:33;;;;;;;108.70;28.77;;;;;;;1.72;100.00;97347.33;3733092;79;43438;-26
2020/12/10 18:43:39;;;;;;;99.87;27.43;;;;;;;1.76;100.00;97352.73;3725954;77;44021;-26
2020/12/10 18:48:48;;;;;;;92.80;28.13;;;;;;;1.82;100.00;97350.36;3727070;77;43094;-26
2020/12/10 18:53:54;;;;;;;81.10;25.17;;;;;;;1.78;100.00;97344.12;3715857;79;43288;-26
2020/12/10 18:59:00;;;;;;;86.33;26.50;;;;;;;1.83;100.00;97342.75;3701541;77;44015;-26
2020/12/10 19:04:06;;;;;;;79.10;26.57;;;;;;;1.82;100.00;97345.55;3708729;77;44149;-25
2020/12/10 19:09:12;;;;;;;82.27;26.70;;;;;;;1.85;100.00;97342.64;3752084;77;44074;-25
2020/12/10 19:14:18;;;;;;;81.70;24.93;;;;;;;1.88;100.00;97336.21;3716926;77;43431;-25
2020/12/10 19:19:25;;;;;;;67.57;24.03;;;;;;;1.90;100.00;97340.41;3727713;79;43337;-26
2020/12/10 19:24:31;;;;;;;66.53;22.73;;;;;;;1.91;100.00;97334.13;3729899;78;44059;-25
2020/12/10 19:29:37;;;;;;;62.87;23.20;;;;;;;1.94;100.00;97338.35;3733962;77;44068;-25
2020/12/10 19:34:44;;;;;;;56.30;23.33;;;;;;;1.94;100.00;97341.01;3725902;79;44102;-25
2020/12/10 19:39:50;;;;;;;59.83;22.17;;;;;;;1.99;100.00;97347.60;3732685;77;44155;-25
2020/12/10 19:44:55;;;;;;;50.50;19.23;;;;;;;2.04;100.00;97340.55;3721643;77;42831;-26
2020/12/10 19:50:02;;;;;;;58.37;22.00;;;;;;;2.03;100.00;97341.52;3707388;79;44164;-23
2020/12/10 19:55:09;;;;;;;49.37;20.70;;;;;;;2.06;100.00;97344.39;3718578;77;44390;-23
2020/12/10 20:00:17;;;;;;;60.43;22.47;;;;;;;2.11;100.00;97344.84;3710414;79;43722;-23
2020/12/10 20:05:23;;;;;;;63.37;23.20;;;;;;;2.12;100.00;97338.06;3704417;79;44035;-23
2020/12/10 20:10:29;;;;;;;62.87;24.30;;;;;;;2.14;100.00;97340.09;3736962;77;43672;-23
2020/12/10 20:15:35;;;;;;;62.43;21.93;;;;;;;2.15;100.00;97339.59;3715842;78;42923;-21
2020/12/10 20:20:43;;;;;;;70.67;24.93;;;;;;;2.14;100.00;97332.13;3725276;79;43744;-21
2020/12/10 20:26:00;;;;;;;62.70;22.13;;;;;;;2.10;100.00;97325.39;3728025;77;44097;-21
2020/12/10 20:30:57;;;;;;;60.23;22.40;;;;;;;2.13;100.00;97326.45;3725976;78;43396;-21
2020/12/10 20:36:05;;;;;;;62.40;21.53;;;;;;;2.12;100.00;97323.44;3696313;78;43336;-21
2020/12/10 20:41:11;;;;;;;63.07;21.97;;;;;;;2.14;100.00;97320.17;3621694;80;43714;-21
2020/12/10 20:46:17;;;;;;;58.50;21.93;;;;;;;2.14;100.00;97325.48;3673224;79;43081;-21
2020/12/10 20:51:23;;;;;;;54.53;21.73;;;;;;;2.16;100.00;97324.01;3684272;79;44071;-21
2020/12/10 20:56:29;;;;;;;58.43;22.50;;;;;;;2.17;100.00;97312.41;3640035;80;43721;-21
2020/12/10 21:01:36;;;;;;;55.50;22.97;;;;;;;2.18;100.00;97314.56;3665458;79;43052;-21
2020/12/10 21:06:41;;;;;;;58.93;22.23;;;;;;;2.16;100.00;97313.38;3636019;80;44151;-21
2020/12/10 21:11:47;;;;;;;57.73;21.03;;;;;;;2.18;100.00;97309.25;3717185;78;44205;-21
2020/12/10 21:16:55;;;;;;;57.27;21.53;;;;;;;2.20;100.00;97309.48;3697752;79;43718;-21
2020/12/10 21:22:03;;;;;;;62.03;22.53;;;;;;;2.22;100.00;97309.34;3693764;79;44180;-21
2020/12/10 21:27:09;;;;;;;61.40;22.90;;;;;;;2.18;100.00;97309.25;3674466;78;44022;-21
2020/12/10 21:32:15;;;;;;;56.90;21.93;;;;;;;2.23;100.00;97305.70;3677389;79;44053;-21
2020/12/10 21:37:21;;;;;;;59.70;20.73;;;;;;;2.26;100.00;97310.75;3691474;79;43335;-20
2020/12/10 21:42:29;;;;;;;53.40;20.57;;;;;;;2.27;100.00;97315.09;3681681;78;44169;-21
2020/12/10 21:47:36;;;;;;;51.67;20.77;;;;;;;2.27;100.00;97311.94;3687701;79;43401;-21
2020/12/10 21:52:42;;;;;;;49.83;19.97;;;;;;;2.30;100.00;97305.50;3683363;79;44109;-21
2020/12/10 21:57:47;;;;;;;60.60;21.73;;;;;;;2.31;100.00;97316.48;3701654;78;44069;-21
2020/12/10 22:02:54;;;;;;;59.33;22.47;;;;;;;2.31;100.00;97318.67;3666579;79;43337;-21
2020/12/10 22:08:00;;;;;;;53.30;21.40;;;;;;;2.30;100.00;97320.12;3693380;79;43383;-20
2020/12/10 22:13:07;;;;;;;56.83;22.20;;;;;;;2.31;100.00;97320.47;3676228;78;43189;-21
2020/12/10 22:18:14;;;;;;;64.93;22.43;;;;;;;2.35;100.00;97317.08;3632863;80;44335;-20
2020/12/10 22:23:20;;;;;;;67.00;23.00;;;;;;;2.36;100.00;97316.08;3697652;79;43341;-21
2020/12/10 22:28:27;;;;;;;63.30;21.80;;;;;;;2.36;100.00;97312.09;3736973;78;43431;-21
2020/12/10 22:33:32;;;;;;;59.63;22.93;;;;;;;2.36;100.00;97319.59;3739812;78;43332;-20
2020/12/10 22:38:42;;;;;;;63.23;22.43;;;;;;;2.39;100.00;97317.99;3725627;77;43595;-21
2020/12/10 22:43:49;;;;;;;63.87;22.13;;;;;;;2.37;100.00;97313.77;3720305;78;43055;-21
2020/12/10 22:48:55;;;;;;;52.90;21.00;;;;;;;2.37;100.00;97310.64;3725766;78;44029;-20
2020/12/10 22:54:01;;;;;;;64.37;23.07;;;;;;;2.38;100.00;97304.34;3731425;77;43975;-21
2020/12/10 22:59:07;;;;;;;65.77;25.10;;;;;;;2.38;100.00;97300.83;3722573;78;44116;-20
2020/12/10 23:04:13;;;;;;;62.90;22.40;;;;;;;2.36;100.00;97294.81;3724703;78;44073;-21
2020/12/10 23:09:22;;;;;;;66.87;23.40;;;;;;;2.39;100.00;97291.88;3749696;77;45205;-21
2020/12/10 23:14:27;;;;;;;57.50;23.07;;;;;;;2.38;100.00;97288.41;3731125;79;44082;-21
2020/12/10 23:19:33;;;;;;;62.57;22.73;;;;;;;2.36;100.00;97277.06;3730837;79;43496;-21
2020/12/10 23:24:40;;;;;;;53.57;20.47;;;;;;;2.38;100.00;97270.27;3729832;77;42954;-21